createdAt,value
2023-05-14T00:00:51.178Z,0.00
2023-05-14T00:01:51.233Z,0.00
2023-05-14T00:02:51.342Z,0.00
2023-05-14T00:03:51.331Z,0.00
2023-05-14T00:04:51.282Z,0.00
2023-05-14T00:05:51.299Z,0.00
2023-05-14T00:06:51.325Z,0.00
2023-05-14T00:07:51.344Z,0.00
2023-05-14T00:08:51.367Z,0.00
2023-05-14T00:09:51.401Z,0.00
2023-05-14T00:10:51.417Z,0.00
2023-05-14T00:11:51.439Z,0.00
2023-05-14T00:12:51.462Z,0.00
2023-05-14T00:13:51.502Z,0.00
2023-05-14T00:14:51.518Z,0.00
2023-05-14T00:15:51.588Z,0.00
2023-05-14T00:16:51.564Z,0.00
2023-05-14T00:17:51.638Z,0.00
2023-05-14T00:18:51.635Z,0.00
2023-05-14T00:19:51.636Z,0.00
2023-05-14T00:20:51.661Z,0.00
2023-05-14T00:21:51.680Z,0.00
2023-05-14T00:22:51.712Z,0.00
2023-05-14T00:23:51.735Z,0.00
2023-05-14T00:24:51.759Z,0.00
2023-05-14T00:25:51.792Z,0.00
2023-05-14T00:26:51.807Z,0.00
2023-05-14T00:27:51.830Z,0.00
2023-05-14T00:28:51.857Z,0.00
2023-05-14T00:29:51.877Z,0.00
2023-05-14T00:30:51.904Z,0.00
2023-05-14T00:31:51.955Z,0.00
2023-05-14T00:32:52.044Z,0.00
2023-05-14T00:33:51.976Z,0.00
2023-05-14T00:34:51.995Z,0.00
2023-05-14T00:35:52.018Z,0.00
2023-05-14T00:36:52.056Z,0.00
2023-05-14T00:37:52.079Z,0.00
2023-05-14T00:38:52.099Z,0.00
2023-05-14T00:39:52.118Z,0.00
2023-05-14T00:40:52.180Z,0.00
2023-05-14T00:41:52.172Z,0.00
2023-05-14T00:42:52.189Z,0.00
2023-05-14T00:43:52.224Z,0.00
2023-05-14T00:44:52.236Z,0.00
2023-05-14T00:45:52.266Z,0.00
2023-05-14T00:46:52.336Z,0.00
2023-05-14T00:47:52.361Z,0.00
2023-05-14T00:48:52.334Z,0.00
2023-05-14T00:49:52.358Z,0.00
2023-05-14T00:50:52.388Z,0.00
2023-05-14T00:51:52.406Z,0.00
2023-05-14T00:52:52.432Z,0.00
2023-05-14T00:53:52.451Z,0.00
2023-05-14T00:54:52.497Z,0.00
2023-05-14T00:55:52.506Z,0.00
2023-05-14T00:56:52.524Z,0.00
2023-05-14T00:57:52.550Z,0.00
2023-05-14T00:58:52.574Z,0.00
2023-05-14T00:59:52.606Z,0.00
2023-05-14T01:00:52.710Z,0.00
2023-05-14T01:01:52.641Z,0.00
2023-05-14T01:02:52.721Z,0.00
2023-05-14T01:03:52.763Z,0.00
2023-05-14T01:04:52.712Z,0.00
2023-05-14T01:05:52.736Z,0.00
2023-05-14T01:06:52.762Z,0.00
2023-05-14T01:07:52.785Z,0.00
2023-05-14T01:08:52.815Z,0.00
2023-05-14T01:09:52.831Z,0.00
2023-05-14T01:10:52.862Z,0.00
2023-05-14T01:11:52.879Z,0.00
2023-05-14T01:12:52.906Z,0.00
2023-05-14T01:13:52.931Z,0.00
2023-05-14T01:14:52.947Z,0.00
2023-05-14T01:15:52.976Z,0.00
2023-05-14T01:16:53.035Z,0.00
2023-05-14T01:17:53.059Z,0.00
2023-05-14T01:18:53.099Z,0.00
2023-05-14T01:19:53.080Z,0.00
2023-05-14T01:20:53.093Z,0.00
2023-05-14T01:21:53.121Z,0.00
2023-05-14T01:22:53.149Z,0.00
2023-05-14T01:23:53.166Z,0.00
2023-05-14T01:24:53.186Z,0.00
2023-05-14T01:25:53.208Z,0.00
2023-05-14T01:26:53.236Z,0.00
2023-05-14T01:27:53.286Z,0.00
2023-05-14T01:28:53.305Z,0.00
2023-05-14T01:29:53.305Z,0.00
2023-05-14T01:30:53.325Z,0.00
2023-05-14T01:31:53.375Z,0.00
2023-05-14T01:32:53.436Z,0.00
2023-05-14T01:33:53.399Z,0.00
2023-05-14T01:34:53.432Z,0.00
2023-05-14T01:35:53.444Z,0.00
2023-05-14T01:36:53.473Z,0.00
2023-05-14T01:37:53.494Z,0.00
2023-05-14T01:38:53.514Z,0.00
2023-05-14T01:39:53.553Z,0.00
2023-05-14T01:40:53.565Z,0.00
2023-05-14T01:41:53.583Z,0.00
2023-05-14T01:42:53.638Z,0.00
2023-05-14T01:43:53.636Z,0.00
2023-05-14T01:44:53.654Z,0.00
2023-05-14T01:45:53.701Z,0.00
2023-05-14T01:46:53.700Z,0.00
2023-05-14T01:47:53.747Z,0.00
2023-05-14T01:48:53.742Z,0.00
2023-05-14T01:49:53.768Z,0.00
2023-05-14T01:50:53.796Z,0.00
2023-05-14T01:51:53.815Z,0.00
2023-05-14T01:52:53.842Z,0.00
2023-05-14T01:53:53.859Z,0.00
2023-05-14T01:54:53.909Z,0.00
2023-05-14T01:55:53.912Z,0.00
2023-05-14T01:56:53.930Z,0.00
2023-05-14T01:57:53.957Z,0.00
2023-05-14T01:58:53.978Z,0.00
2023-05-14T01:59:54.003Z,0.00
2023-05-14T02:00:54.025Z,0.00
2023-05-14T02:01:54.182Z,0.00
2023-05-14T02:02:54.239Z,0.00
2023-05-14T02:03:54.139Z,0.00
2023-05-14T02:04:54.121Z,0.00
2023-05-14T02:05:54.138Z,0.00
2023-05-14T02:06:54.158Z,0.00
2023-05-14T02:07:54.187Z,0.00
2023-05-14T02:08:54.220Z,0.00
2023-05-14T02:09:54.230Z,0.00
2023-05-14T02:10:54.256Z,0.00
2023-05-14T02:11:54.280Z,0.00
2023-05-14T02:12:54.300Z,0.00
2023-05-14T02:13:54.335Z,0.00
2023-05-14T02:14:54.351Z,0.00
2023-05-14T02:15:54.413Z,0.00
2023-05-14T02:16:54.408Z,0.00
2023-05-14T02:17:54.454Z,0.00
2023-05-14T02:18:54.487Z,0.00
2023-05-14T02:19:54.479Z,0.00
2023-05-14T02:20:54.488Z,0.00
2023-05-14T02:21:54.515Z,0.00
2023-05-14T02:22:54.535Z,0.00
2023-05-14T02:23:54.558Z,0.00
2023-05-14T02:24:54.581Z,0.00
2023-05-14T02:25:54.599Z,0.00
2023-05-14T02:26:54.629Z,0.00
2023-05-14T02:27:54.651Z,0.00
2023-05-14T02:28:54.680Z,0.00
2023-05-14T02:29:54.698Z,0.00
2023-05-14T02:30:54.718Z,0.00
2023-05-14T02:31:54.873Z,0.00
2023-05-14T02:32:54.924Z,0.00
2023-05-14T02:33:54.790Z,0.00
2023-05-14T02:34:54.814Z,0.00
2023-05-14T02:35:54.840Z,0.00
2023-05-14T02:36:54.868Z,0.00
2023-05-14T02:37:54.881Z,0.00
2023-05-14T02:38:54.904Z,0.00
2023-05-14T02:39:54.937Z,0.00
2023-05-14T02:40:54.952Z,0.00
2023-05-14T02:41:54.973Z,0.00
2023-05-14T02:42:54.997Z,0.00
2023-05-14T02:43:55.033Z,0.00
2023-05-14T02:44:55.061Z,0.00
2023-05-14T02:45:55.068Z,0.00
2023-05-14T02:46:55.133Z,0.00
2023-05-14T02:47:55.118Z,0.00
2023-05-14T02:48:55.136Z,0.00
2023-05-14T02:49:55.159Z,0.00
2023-05-14T02:50:55.184Z,0.00
2023-05-14T02:51:55.218Z,0.00
2023-05-14T02:52:55.230Z,0.00
2023-05-14T02:53:55.258Z,0.00
2023-05-14T02:54:55.279Z,0.00
2023-05-14T02:55:55.299Z,0.00
2023-05-14T02:56:55.317Z,4.00
2023-05-14T02:57:55.342Z,4.00
2023-05-14T02:58:55.372Z,4.00
2023-05-14T02:59:55.384Z,0.00
2023-05-14T03:00:55.434Z,4.00
2023-05-14T03:01:55.493Z,4.00
2023-05-14T03:02:55.507Z,0.00
2023-05-14T03:03:55.479Z,4.00
2023-05-14T03:04:55.498Z,8.00
2023-05-14T03:05:55.522Z,4.00
2023-05-14T03:06:55.555Z,4.00
2023-05-14T03:07:55.577Z,8.00
2023-05-14T03:08:55.593Z,8.00
2023-05-14T03:09:55.627Z,8.00
2023-05-14T03:10:55.637Z,12.00
2023-05-14T03:11:55.664Z,12.00
2023-05-14T03:12:55.687Z,12.00
2023-05-14T03:13:55.710Z,16.00
2023-05-14T03:14:55.730Z,16.00
2023-05-14T03:15:55.759Z,20.00
2023-05-14T03:16:55.811Z,24.00
2023-05-14T03:17:55.829Z,28.00
2023-05-14T03:18:55.950Z,32.00
2023-05-14T03:19:55.842Z,36.00
2023-05-14T03:20:55.865Z,44.00
2023-05-14T03:21:55.890Z,44.00
2023-05-14T03:22:55.912Z,56.00
2023-05-14T03:23:55.931Z,56.00
2023-05-14T03:24:55.954Z,68.00
2023-05-14T03:25:55.980Z,76.00
2023-05-14T03:26:55.996Z,84.00
2023-05-14T03:27:56.033Z,96.00
2023-05-14T03:28:56.053Z,104.00
2023-05-14T03:29:56.071Z,120.00
2023-05-14T03:30:56.107Z,132.00
2023-05-14T03:31:56.124Z,148.00
2023-05-14T03:32:56.161Z,168.00
2023-05-14T03:33:56.162Z,184.00
2023-05-14T03:34:56.185Z,204.00
2023-05-14T03:35:56.220Z,224.00
2023-05-14T03:36:56.234Z,244.00
2023-05-14T03:37:56.254Z,272.00
2023-05-14T03:38:56.279Z,296.00
2023-05-14T03:39:56.296Z,324.00
2023-05-14T03:40:56.325Z,356.00
2023-05-14T03:41:56.350Z,388.00
2023-05-14T03:42:56.368Z,420.00
2023-05-14T03:43:56.390Z,452.00
2023-05-14T03:44:56.412Z,488.00
2023-05-14T03:45:56.437Z,520.00
2023-05-14T03:46:56.467Z,552.00
2023-05-14T03:47:56.564Z,588.00
2023-05-14T03:48:56.529Z,624.00
2023-05-14T03:49:56.533Z,660.00
2023-05-14T03:50:56.554Z,700.00
2023-05-14T03:51:56.580Z,744.00
2023-05-14T03:52:56.594Z,784.00
2023-05-14T03:53:56.620Z,832.00
2023-05-14T03:54:56.644Z,884.00
2023-05-14T03:55:56.673Z,944.00
2023-05-14T03:56:56.689Z,1008.00
2023-05-14T03:57:56.721Z,1068.00
2023-05-14T03:58:56.737Z,1128.00
2023-05-14T03:59:56.774Z,1188.00
2023-05-14T04:00:56.795Z,1244.00
2023-05-14T04:01:56.803Z,1308.00
2023-05-14T04:02:56.949Z,1364.00
2023-05-14T04:03:57.000Z,1432.00
2023-05-14T04:04:56.888Z,1500.00
2023-05-14T04:05:56.891Z,1564.00
2023-05-14T04:06:56.921Z,1636.00
2023-05-14T04:07:56.940Z,1708.00
2023-05-14T04:08:56.965Z,1784.00
2023-05-14T04:09:56.991Z,1860.00
2023-05-14T04:10:57.014Z,1944.00
2023-05-14T04:11:57.032Z,2036.00
2023-05-14T04:12:57.067Z,2124.00
2023-05-14T04:13:57.093Z,2212.00
2023-05-14T04:14:57.108Z,2308.00
2023-05-14T04:15:57.163Z,2392.00
2023-05-14T04:16:57.725Z,2484.00
2023-05-14T04:17:57.216Z,2580.00
2023-05-14T04:18:57.212Z,2668.00
2023-05-14T04:19:57.229Z,2756.00
2023-05-14T04:20:57.248Z,2844.00
2023-05-14T04:21:57.273Z,2932.00
2023-05-14T04:22:57.318Z,3024.00
2023-05-14T04:23:57.321Z,3124.00
2023-05-14T04:24:57.349Z,3236.00
2023-05-14T04:25:57.389Z,3340.00
2023-05-14T04:26:57.408Z,3452.00
2023-05-14T04:27:57.418Z,3568.00
2023-05-14T04:28:57.443Z,3680.00
2023-05-14T04:29:57.465Z,3804.00
2023-05-14T04:30:57.492Z,3932.00
2023-05-14T04:31:57.544Z,4068.00
2023-05-14T04:32:57.585Z,4192.00
2023-05-14T04:33:57.580Z,4308.00
2023-05-14T04:34:57.598Z,4428.00
2023-05-14T04:35:57.628Z,4552.00
2023-05-14T04:36:57.643Z,4680.00
2023-05-14T04:37:57.664Z,4804.00
2023-05-14T04:38:57.690Z,4892.00
2023-05-14T04:39:57.711Z,4808.00
2023-05-14T04:40:57.757Z,4632.00
2023-05-14T04:41:57.772Z,4492.00
2023-05-14T04:42:57.798Z,4188.00
2023-05-14T04:43:57.835Z,4044.00
2023-05-14T04:44:57.847Z,4048.00
2023-05-14T04:45:57.968Z,4056.00
2023-05-14T04:46:57.895Z,3920.00
2023-05-14T04:47:57.984Z,4416.00
2023-05-14T04:48:57.953Z,4812.00
2023-05-14T04:49:57.969Z,4984.00
2023-05-14T04:50:57.998Z,5064.00
2023-05-14T04:51:58.024Z,4568.00
2023-05-14T04:52:58.057Z,4112.00
2023-05-14T04:53:58.246Z,3864.00
2023-05-14T04:54:58.105Z,4036.00
2023-05-14T04:55:58.132Z,4396.00
2023-05-14T04:56:58.155Z,5916.00
2023-05-14T04:57:58.184Z,6076.00
2023-05-14T04:58:58.208Z,6344.00
2023-05-14T04:59:58.232Z,6256.00
2023-05-14T05:00:58.335Z,7980.00
2023-05-14T05:01:58.284Z,5584.00
2023-05-14T05:02:58.436Z,8616.00
2023-05-14T05:03:58.415Z,10316.00
2023-05-14T05:04:58.363Z,9716.00
2023-05-14T05:05:58.396Z,9164.00
2023-05-14T05:06:58.422Z,7724.00
2023-05-14T05:07:58.441Z,7692.00
2023-05-14T05:09:00.629Z,8456.00
2023-05-14T05:09:58.499Z,6640.00
2023-05-14T05:10:58.520Z,7332.00
2023-05-14T05:11:58.553Z,7168.00
2023-05-14T05:12:58.575Z,8300.00
2023-05-14T05:13:58.601Z,8576.00
2023-05-14T05:14:58.634Z,8256.00
2023-05-14T05:15:58.670Z,7620.00
2023-05-14T05:16:58.691Z,7312.00
2023-05-14T05:17:58.762Z,7496.00
2023-05-14T05:18:58.758Z,7396.00
2023-05-14T05:19:58.760Z,7484.00
2023-05-14T05:20:58.785Z,7392.00
2023-05-14T05:21:58.812Z,7340.00
2023-05-14T05:22:58.838Z,7764.00
2023-05-14T05:23:58.863Z,7596.00
2023-05-14T05:24:58.896Z,7668.00
2023-05-14T05:25:58.924Z,7864.00
2023-05-14T05:26:58.949Z,8024.00
2023-05-14T05:27:58.978Z,8216.00
2023-05-14T05:28:59.000Z,8436.00
2023-05-14T05:29:59.025Z,8584.00
2023-05-14T05:30:59.069Z,8772.00
2023-05-14T05:31:59.081Z,8920.00
2023-05-14T05:32:59.162Z,8704.00
2023-05-14T05:33:59.130Z,8920.00
2023-05-14T05:34:59.170Z,8644.00
2023-05-14T05:35:59.183Z,8176.00
2023-05-14T05:36:59.201Z,8032.00
2023-05-14T05:38:01.357Z,7832.00
2023-05-14T05:38:59.266Z,7652.00
2023-05-14T05:39:59.284Z,7696.00
2023-05-14T05:40:59.321Z,8164.00
2023-05-14T05:41:59.333Z,8768.00
2023-05-14T05:42:59.363Z,10836.00
2023-05-14T05:43:59.397Z,13080.00
2023-05-14T05:44:59.412Z,15040.00
2023-05-14T05:45:59.443Z,14560.00
2023-05-14T05:46:59.569Z,13252.00
2023-05-14T05:47:59.532Z,11456.00
2023-05-14T05:48:59.521Z,9968.00
2023-05-14T05:49:59.548Z,8132.00
2023-05-14T05:50:59.574Z,6068.00
2023-05-14T05:51:59.606Z,5676.00
2023-05-14T05:52:59.628Z,5544.00
2023-05-14T05:53:59.651Z,5508.00
2023-05-14T05:54:59.679Z,5536.00
2023-05-14T05:55:59.722Z,5608.00
2023-05-14T05:56:59.742Z,5724.00
2023-05-14T05:57:59.759Z,5740.00
2023-05-14T05:58:59.800Z,5716.00
2023-05-14T05:59:59.823Z,5848.00
2023-05-14T06:00:59.838Z,6016.00
2023-05-14T06:01:59.900Z,6120.00
2023-05-14T06:02:59.934Z,6368.00
2023-05-14T06:03:59.916Z,6456.00
2023-05-14T06:05:00.027Z,6852.00
2023-05-14T06:05:59.973Z,7024.00
2023-05-14T06:07:00.025Z,7160.00
2023-05-14T06:08:00.040Z,6684.00
2023-05-14T06:09:00.053Z,7228.00
2023-05-14T06:10:00.077Z,7764.00
2023-05-14T06:11:00.129Z,11204.00
2023-05-14T06:12:00.152Z,8896.00
2023-05-14T06:13:00.205Z,10452.00
2023-05-14T06:14:00.218Z,12324.00
2023-05-14T06:15:00.217Z,11668.00
2023-05-14T06:16:00.340Z,12140.00
2023-05-14T06:17:00.484Z,14072.00
2023-05-14T06:18:00.327Z,17184.00
2023-05-14T06:19:00.411Z,15408.00
2023-05-14T06:20:00.364Z,14372.00
2023-05-14T06:21:00.492Z,12396.00
2023-05-14T06:22:00.399Z,14332.00
2023-05-14T06:23:00.448Z,14512.00
2023-05-14T06:24:00.452Z,9984.00
2023-05-14T06:25:00.485Z,11700.00
2023-05-14T06:26:00.522Z,14812.00
2023-05-14T06:27:00.560Z,13220.00
2023-05-14T06:28:00.558Z,16448.00
2023-05-14T06:29:00.582Z,12996.00
2023-05-14T06:30:00.609Z,14592.00
2023-05-14T06:31:00.638Z,8676.00
2023-05-14T06:32:00.698Z,9980.00
2023-05-14T06:33:00.708Z,10452.00
2023-05-14T06:34:00.722Z,8896.00
2023-05-14T06:35:00.762Z,11584.00
2023-05-14T06:36:00.798Z,11204.00
2023-05-14T06:37:00.812Z,9824.00
2023-05-14T06:38:00.846Z,13268.00
2023-05-14T06:39:00.872Z,13704.00
2023-05-14T06:40:00.918Z,11716.00
2023-05-14T06:41:00.921Z,11820.00
2023-05-14T06:42:00.949Z,12956.00
2023-05-14T06:43:00.972Z,21664.00
2023-05-14T06:44:00.995Z,13864.00
2023-05-14T06:45:01.026Z,16128.00
2023-05-14T06:46:01.057Z,16960.00
2023-05-14T06:47:01.108Z,28064.00
2023-05-14T06:48:01.177Z,23552.00
2023-05-14T06:49:01.170Z,21696.00
2023-05-14T06:50:01.173Z,30240.00
2023-05-14T06:51:01.207Z,32192.00
2023-05-14T06:52:01.225Z,28608.00
2023-05-14T06:53:01.260Z,32416.00
2023-05-14T06:54:01.295Z,25024.00
2023-05-14T06:55:01.327Z,15756.00
2023-05-14T06:56:01.341Z,24736.00
2023-05-14T06:57:01.362Z,24320.00
2023-05-14T06:58:01.391Z,21664.00
2023-05-14T06:59:01.440Z,26336.00
2023-05-14T07:00:03.257Z,30944.00
2023-05-14T07:01:01.582Z,33152.00
2023-05-14T07:02:01.612Z,32320.00
2023-05-14T07:03:01.613Z,31936.00
2023-05-14T07:04:01.714Z,33696.00
2023-05-14T07:05:01.605Z,33696.00
2023-05-14T07:06:01.632Z,31616.00
2023-05-14T07:07:01.663Z,30912.00
2023-05-14T07:08:01.701Z,34368.00
2023-05-14T07:09:01.732Z,26336.00
2023-05-14T07:10:01.766Z,13756.00
2023-05-14T07:11:01.815Z,9136.00
2023-05-14T07:12:01.819Z,8476.00
2023-05-14T07:13:01.852Z,8116.00
2023-05-14T07:14:01.898Z,7860.00
2023-05-14T07:15:01.913Z,7688.00
2023-05-14T07:16:01.944Z,7588.00
2023-05-14T07:17:02.027Z,7576.00
2023-05-14T07:18:02.069Z,7520.00
2023-05-14T07:19:02.090Z,7452.00
2023-05-14T07:20:02.091Z,7388.00
2023-05-14T07:21:02.111Z,7276.00
2023-05-14T07:22:02.129Z,7252.00
2023-05-14T07:23:02.164Z,7220.00
2023-05-14T07:24:02.219Z,7208.00
2023-05-14T07:25:02.218Z,7160.00
2023-05-14T07:26:02.251Z,7112.00
2023-05-14T07:27:02.279Z,7096.00
2023-05-14T07:28:02.309Z,7084.00
2023-05-14T07:29:02.342Z,7068.00
2023-05-14T07:30:02.367Z,7060.00
2023-05-14T07:31:02.419Z,7004.00
2023-05-14T07:32:02.423Z,6972.00
2023-05-14T07:33:02.495Z,6948.00
2023-05-14T07:34:02.509Z,6936.00
2023-05-14T07:35:02.511Z,6920.00
2023-05-14T07:36:02.556Z,6920.00
2023-05-14T07:37:02.585Z,6924.00
2023-05-14T07:38:02.596Z,6916.00
2023-05-14T07:39:02.630Z,6924.00
2023-05-14T07:40:02.654Z,6940.00
2023-05-14T07:41:02.690Z,6904.00
2023-05-14T07:42:02.712Z,6908.00
2023-05-14T07:43:02.744Z,6876.00
2023-05-14T07:44:02.769Z,6880.00
2023-05-14T07:45:02.813Z,6872.00
2023-05-14T07:46:02.829Z,6856.00
2023-05-14T07:47:02.888Z,6800.00
2023-05-14T07:48:02.981Z,6756.00
2023-05-14T07:49:02.921Z,6724.00
2023-05-14T07:50:02.943Z,6692.00
2023-05-14T07:51:02.976Z,6688.00
2023-05-14T07:52:03.002Z,6692.00
2023-05-14T07:53:03.049Z,6748.00
2023-05-14T07:54:03.056Z,6768.00
2023-05-14T07:55:03.086Z,6744.00
2023-05-14T07:56:03.109Z,6696.00
2023-05-14T07:57:03.141Z,6644.00
2023-05-14T07:58:03.182Z,6584.00
2023-05-14T07:59:03.202Z,6528.00
2023-05-14T08:00:03.242Z,6484.00
2023-05-14T08:01:03.266Z,6456.00
2023-05-14T08:02:03.314Z,6444.00
2023-05-14T08:03:03.520Z,6440.00
2023-05-14T08:04:03.563Z,6420.00
2023-05-14T08:05:03.371Z,6400.00
2023-05-14T08:06:03.403Z,6396.00
2023-05-14T08:07:03.430Z,6392.00
2023-05-14T08:08:03.469Z,6392.00
2023-05-14T08:09:03.485Z,6404.00
2023-05-14T08:10:03.524Z,6416.00
2023-05-14T08:11:03.653Z,6436.00
2023-05-14T08:12:03.573Z,6484.00
2023-05-14T08:13:05.822Z,6532.00
2023-05-14T08:14:03.631Z,6584.00
2023-05-14T08:15:03.661Z,6604.00
2023-05-14T08:16:03.691Z,6620.00
2023-05-14T08:17:03.985Z,6624.00
2023-05-14T08:18:03.856Z,6584.00
2023-05-14T08:19:03.808Z,6540.00
2023-05-14T08:20:03.802Z,6584.00
2023-05-14T08:21:03.945Z,6600.00
2023-05-14T08:22:03.865Z,6600.00
2023-05-14T08:23:03.890Z,6568.00
2023-05-14T08:24:03.926Z,6468.00
2023-05-14T08:25:03.951Z,6396.00
2023-05-14T08:26:04.006Z,6348.00
2023-05-14T08:27:04.004Z,6280.00
2023-05-14T08:28:04.038Z,6244.00
2023-05-14T08:29:04.060Z,6216.00
2023-05-14T08:30:04.099Z,6212.00
2023-05-14T08:31:04.175Z,6180.00
2023-05-14T08:32:15.505Z,6140.00
2023-05-14T08:33:04.222Z,6104.00
2023-05-14T08:34:04.205Z,6080.00
2023-05-14T08:35:04.231Z,6068.00
2023-05-14T08:36:04.265Z,6048.00
2023-05-14T08:37:04.290Z,6056.00
2023-05-14T08:38:04.327Z,6100.00
2023-05-14T08:39:04.354Z,6184.00
2023-05-14T08:40:04.380Z,6288.00
2023-05-14T08:41:04.450Z,6416.00
2023-05-14T08:42:04.439Z,6548.00
2023-05-14T08:43:04.464Z,6572.00
2023-05-14T08:44:04.495Z,6560.00
2023-05-14T08:45:04.541Z,6408.00
2023-05-14T08:46:04.555Z,6372.00
2023-05-14T08:47:04.577Z,6232.00
2023-05-14T08:48:04.675Z,6064.00
2023-05-14T08:49:04.676Z,5844.00
2023-05-14T08:50:04.748Z,5888.00
2023-05-14T08:51:04.694Z,5856.00
2023-05-14T08:52:04.720Z,5844.00
2023-05-14T08:53:04.764Z,5832.00
2023-05-14T08:54:04.781Z,5816.00
2023-05-14T08:55:04.810Z,5812.00
2023-05-14T08:56:04.836Z,5808.00
2023-05-14T08:57:04.869Z,5816.00
2023-05-14T08:58:04.895Z,5852.00
2023-05-14T08:59:04.937Z,5924.00
2023-05-14T09:00:05.025Z,6048.00
2023-05-14T09:01:04.981Z,6240.00
2023-05-14T09:02:05.099Z,6356.00
2023-05-14T09:03:05.101Z,6504.00
2023-05-14T09:04:05.107Z,6516.00
2023-05-14T09:05:05.154Z,6584.00
2023-05-14T09:06:05.125Z,6528.00
2023-05-14T09:07:05.158Z,6356.00
2023-05-14T09:08:05.182Z,6056.00
2023-05-14T09:09:05.218Z,6200.00
2023-05-14T09:10:05.248Z,6292.00
2023-05-14T09:11:05.274Z,6120.00
2023-05-14T09:12:05.302Z,6096.00
2023-05-14T09:13:05.335Z,6348.00
2023-05-14T09:14:12.514Z,6952.00
2023-05-14T09:17:13.888Z,7436.00
2023-05-14T09:18:13.500Z,7444.00
2023-05-14T09:20:06.597Z,8440.00
2023-05-14T09:21:06.566Z,9060.00
2023-05-14T09:23:11.096Z,10052.00
2023-05-14T09:24:10.625Z,10280.00
2023-05-14T09:26:14.685Z,9780.00
2023-05-14T09:27:14.669Z,9380.00
2023-05-14T09:29:19.238Z,10312.00
2023-05-14T09:30:18.719Z,10880.00
2023-05-14T09:32:22.852Z,12144.00
2023-05-14T09:33:22.767Z,12148.00
2023-05-14T09:35:27.344Z,12172.00
2023-05-14T09:36:26.827Z,12264.00
2023-05-14T09:38:19.810Z,12528.00
2023-05-14T09:39:19.799Z,12316.00
2023-05-14T09:41:24.330Z,11792.00
2023-05-14T09:42:23.870Z,10988.00
2023-05-14T09:44:27.908Z,10200.00
2023-05-14T09:45:27.911Z,9916.00
2023-05-14T09:47:32.645Z,9012.00
2023-05-14T09:48:32.000Z,9468.00
2023-05-14T09:50:36.024Z,10004.00
2023-05-14T09:51:36.012Z,10296.00
2023-05-14T09:53:40.567Z,10252.00
2023-05-14T09:54:40.063Z,9948.00
2023-05-14T09:56:44.118Z,8752.00
2023-05-14T09:57:44.116Z,8740.00
2023-05-14T09:59:48.658Z,8640.00
2023-05-14T10:00:48.223Z,8792.00
2023-05-14T10:02:52.280Z,8196.00
2023-05-14T10:03:52.328Z,7920.00
2023-05-14T10:05:56.808Z,8152.00
2023-05-14T10:06:56.312Z,8296.00
2023-05-14T10:09:00.369Z,9232.00
2023-05-14T10:10:00.377Z,9520.00
2023-05-14T10:12:04.891Z,9876.00
2023-05-14T10:13:04.416Z,9892.00
2023-05-14T10:15:08.489Z,9460.00
2023-05-14T10:16:08.471Z,9928.00
2023-05-14T10:18:01.594Z,10212.00
2023-05-14T10:19:01.514Z,10300.00
2023-05-14T10:21:05.494Z,10924.00
2023-05-14T10:22:05.491Z,11020.00
2023-05-14T10:24:10.032Z,11224.00
2023-05-14T10:25:09.560Z,11352.00
2023-05-14T10:27:13.640Z,10664.00
2023-05-14T10:28:13.614Z,10776.00
2023-05-14T10:30:18.158Z,11056.00
2023-05-14T10:31:17.683Z,11376.00
2023-05-14T10:33:21.729Z,12084.00
2023-05-14T10:34:21.719Z,12080.00
2023-05-14T10:36:26.308Z,11536.00
2023-05-14T10:37:25.787Z,11704.00
2023-05-14T10:39:29.831Z,10724.00
2023-05-14T10:40:29.826Z,10200.00
2023-05-14T10:42:34.351Z,10080.00
2023-05-14T10:43:33.894Z,10380.00
2023-05-14T10:45:37.962Z,11096.00
2023-05-14T10:46:38.000Z,11436.00
2023-05-14T10:48:31.008Z,11404.00
2023-05-14T10:49:42.714Z,10796.00
2023-05-14T10:51:35.099Z,8888.00
2023-05-14T10:52:34.998Z,8428.00
2023-05-14T10:54:39.534Z,7604.00
2023-05-14T10:55:39.047Z,7436.00
2023-05-14T10:57:32.038Z,7344.00
2023-05-14T10:58:32.025Z,7260.00
2023-05-14T11:00:36.557Z,7004.00
2023-05-14T11:01:36.128Z,6920.00
2023-05-14T11:03:40.161Z,6380.00
2023-05-14T11:04:40.127Z,6116.00
2023-05-14T11:06:44.670Z,5924.00
2023-05-14T11:07:44.200Z,5912.00
2023-05-14T11:09:48.765Z,5624.00
2023-05-14T11:10:48.730Z,5760.00
2023-05-14T11:11:48.774Z,5916.00
2023-05-14T11:12:48.788Z,6012.00
2023-05-14T11:13:48.825Z,6088.00
2023-05-14T11:14:48.854Z,6312.00
2023-05-14T11:15:48.882Z,6344.00
2023-05-14T11:16:48.937Z,6448.00
2023-05-14T11:17:48.987Z,6560.00
2023-05-14T11:18:49.025Z,6740.00
2023-05-14T11:19:50.992Z,7168.00
2023-05-14T11:20:49.034Z,7592.00
2023-05-14T11:21:49.131Z,8068.00
2023-05-14T11:22:49.099Z,8380.00
2023-05-14T11:23:49.182Z,8584.00
2023-05-14T11:24:49.152Z,9276.00
2023-05-14T11:25:49.194Z,9988.00
2023-05-14T11:26:49.216Z,10356.00
2023-05-14T11:27:49.241Z,10436.00
2023-05-14T11:28:49.270Z,10448.00
2023-05-14T11:29:49.303Z,10088.00
2023-05-14T11:30:49.334Z,9452.00
2023-05-14T11:31:49.433Z,9160.00
2023-05-14T11:32:49.504Z,8736.00
2023-05-14T11:33:49.428Z,8432.00
2023-05-14T11:34:49.483Z,8276.00
2023-05-14T11:35:49.494Z,8224.00
2023-05-14T11:36:49.532Z,8584.00
2023-05-14T11:37:49.555Z,8796.00
2023-05-14T11:38:49.581Z,8788.00
2023-05-14T11:39:49.610Z,8876.00
2023-05-14T11:40:49.648Z,9072.00
2023-05-14T11:41:49.672Z,9188.00
2023-05-14T11:42:49.707Z,9416.00
2023-05-14T11:43:49.742Z,9888.00
2023-05-14T11:44:49.771Z,10100.00
2023-05-14T11:45:49.850Z,10112.00
2023-05-14T11:46:49.831Z,10048.00
2023-05-14T11:47:49.896Z,10068.00
2023-05-14T11:48:49.905Z,10432.00
2023-05-14T11:49:49.940Z,10908.00
2023-05-14T11:50:49.958Z,11280.00
2023-05-14T11:51:49.995Z,11440.00
2023-05-14T11:52:50.045Z,11472.00
2023-05-14T11:53:50.057Z,11488.00
2023-05-14T11:54:50.087Z,11528.00
2023-05-14T11:55:50.120Z,11448.00
2023-05-14T11:56:50.152Z,11256.00
2023-05-14T11:57:50.182Z,11412.00
2023-05-14T11:58:50.242Z,11380.00
2023-05-14T11:59:50.249Z,11332.00
2023-05-14T12:00:50.274Z,11492.00
2023-05-14T12:01:50.798Z,11832.00
2023-05-14T12:02:50.505Z,12168.00
2023-05-14T12:03:50.446Z,12660.00
2023-05-14T12:04:50.492Z,13268.00
2023-05-14T12:05:50.429Z,13964.00
2023-05-14T12:06:50.473Z,14752.00
2023-05-14T12:07:50.514Z,15352.00
2023-05-14T12:08:50.538Z,15596.00
2023-05-14T12:09:50.579Z,15468.00
2023-05-14T12:10:50.593Z,15428.00
2023-05-14T12:11:50.622Z,15492.00
2023-05-14T12:12:50.661Z,15416.00
2023-05-14T12:13:50.693Z,15136.00
2023-05-14T12:14:50.741Z,15132.00
2023-05-14T12:15:50.769Z,15172.00
2023-05-14T12:16:50.782Z,15016.00
2023-05-14T12:17:50.918Z,15004.00
2023-05-14T12:18:50.893Z,14696.00
2023-05-14T12:19:50.893Z,14620.00
2023-05-14T12:20:50.913Z,14396.00
2023-05-14T12:21:50.959Z,14132.00
2023-05-14T12:22:50.977Z,14072.00
2023-05-14T12:23:51.010Z,14332.00
2023-05-14T12:24:51.046Z,14248.00
2023-05-14T12:25:51.075Z,13572.00
2023-05-14T12:26:51.112Z,12148.00
2023-05-14T12:27:51.141Z,10864.00
2023-05-14T12:28:51.190Z,10196.00
2023-05-14T12:29:51.207Z,9788.00
2023-05-14T12:30:51.239Z,9564.00
2023-05-14T12:31:51.371Z,9492.00
2023-05-14T12:32:51.737Z,9516.00
2023-05-14T12:33:51.349Z,9512.00
2023-05-14T12:34:51.373Z,9532.00
2023-05-14T12:35:51.410Z,9584.00
2023-05-14T12:36:51.442Z,9676.00
2023-05-14T12:37:51.480Z,9776.00
2023-05-14T12:38:51.508Z,9928.00
2023-05-14T12:39:51.544Z,10060.00
2023-05-14T12:40:51.572Z,9808.00
2023-05-14T12:41:51.609Z,9644.00
2023-05-14T12:42:51.649Z,9304.00
2023-05-14T12:43:51.677Z,9172.00
2023-05-14T12:44:51.707Z,8956.00
2023-05-14T12:45:51.735Z,8668.00
2023-05-14T12:46:51.837Z,8248.00
2023-05-14T12:47:51.851Z,8084.00
2023-05-14T12:48:53.428Z,8180.00
2023-05-14T12:49:51.864Z,8408.00
2023-05-14T12:50:51.895Z,8784.00
2023-05-14T12:51:59.686Z,9128.00
2023-05-14T12:52:51.960Z,9500.00
2023-05-14T12:53:51.993Z,9684.00
2023-05-14T12:54:52.027Z,9588.00
2023-05-14T12:55:52.070Z,9436.00
2023-05-14T12:56:52.096Z,9380.00
2023-05-14T12:57:52.122Z,9328.00
2023-05-14T12:58:52.154Z,9204.00
2023-05-14T12:59:52.188Z,8980.00
2023-05-14T13:00:52.241Z,8672.00
2023-05-14T13:01:52.252Z,8352.00